createdAt,value
2022-10-31T00:00:48.329Z,-23584.53
2022-10-31T00:02:51.057Z,-23584.06
2022-10-31T00:04:53.612Z,-23584.06
2022-10-31T00:06:56.212Z,-23581.53
2022-10-31T00:09:02.358Z,-23582.31
2022-10-31T00:11:05.263Z,-23582.31
2022-10-31T00:13:08.009Z,-23584.69
2022-10-31T00:15:10.863Z,-23584.84
2022-10-31T00:17:13.441Z,-23583.13
2022-10-31T00:19:16.158Z,-23580.09
2022-10-31T00:21:19.124Z,-23579.31
2022-10-31T00:23:21.694Z,-23578.69
2022-10-31T00:25:25.611Z,-23577.72
2022-10-31T00:27:28.202Z,-23575.53
2022-10-31T00:29:30.787Z,-23577.25
2022-10-31T00:31:33.442Z,-23576.16
2022-10-31T00:33:38.527Z,-23574.88
2022-10-31T00:35:41.101Z,-23573.00
2022-10-31T00:37:43.706Z,-23572.03
2022-10-31T00:39:46.604Z,-23570.47
2022-10-31T00:41:50.546Z,-23572.69
2022-10-31T00:43:53.156Z,-23574.41
2022-10-31T00:45:55.862Z,-23575.53
2022-10-31T00:47:58.825Z,-23573.63
2022-10-31T00:50:01.742Z,-23573.16
2022-10-31T00:52:04.348Z,-23570.47
2022-10-31T00:54:07.028Z,-23572.19
2022-10-31T00:56:09.633Z,-23568.25
2022-10-31T01:00:17.886Z,-23566.66
2022-10-31T01:02:20.610Z,-23572.19
2022-10-31T01:04:23.425Z,-23575.22
2022-10-31T01:06:25.998Z,-23570.78
2022-10-31T01:08:29.040Z,-23567.16
2022-10-31T01:10:31.654Z,-23560.66
2022-10-31T01:12:38.221Z,-23558.13
2022-10-31T01:14:44.112Z,-23560.66
2022-10-31T01:16:46.687Z,-23560.34
2022-10-31T01:18:49.306Z,-23560.19
2022-10-31T01:21:00.519Z,-23558.91
2022-10-31T01:23:03.134Z,-23555.13
2022-10-31T01:25:07.230Z,-23555.91
2022-10-31T01:27:09.828Z,-23557.50
2022-10-31T01:29:12.419Z,-23558.59
2022-10-31T01:31:18.601Z,-23560.03
2022-10-31T01:33:21.850Z,-23560.66
2022-10-31T01:35:24.407Z,-23555.28
2022-10-31T01:37:27.097Z,-23550.53
2022-10-31T01:39:29.689Z,-23548.31
2022-10-31T01:41:35.168Z,-23550.84
2022-10-31T01:43:45.594Z,-23553.69
2022-10-31T01:45:54.490Z,-23548.16
2022-10-31T01:47:58.821Z,-23552.13
2022-10-31T01:50:05.128Z,-23548.16
2022-10-31T01:52:12.172Z,-23544.53
2022-10-31T01:54:17.911Z,-23538.50
2022-10-31T01:56:20.948Z,-23539.63
2022-10-31T01:58:27.298Z,-23542.16
2022-10-31T02:00:30.182Z,-23543.41
2022-10-31T02:02:34.142Z,-23544.84
2022-10-31T02:04:39.624Z,-23547.06
2022-10-31T02:06:48.536Z,-23551.34
2022-10-31T02:08:52.440Z,-23549.91
2022-10-31T02:10:56.073Z,-23549.13
2022-10-31T02:13:01.815Z,-23552.44
2022-10-31T02:15:06.546Z,-23552.91
2022-10-31T02:17:09.167Z,-23545.00
2022-10-31T02:19:18.311Z,-23538.03
2022-10-31T02:21:31.556Z,-23537.88
2022-10-31T02:24:03.119Z,-23541.03
2022-10-31T02:26:22.838Z,-23539.31
2022-10-31T02:28:43.136Z,-23540.09
2022-10-31T02:31:03.522Z,-23541.34
2022-10-31T02:33:22.218Z,-23537.09
2022-10-31T02:35:35.167Z,-23534.56
2022-10-31T02:37:44.362Z,-23535.97
2022-10-31T02:39:56.054Z,-23534.06
2022-10-31T02:42:08.501Z,-23531.84
2022-10-31T02:44:18.604Z,-23525.84
2022-10-31T02:46:29.817Z,-23528.69
2022-10-31T02:48:36.332Z,-23529.97
2022-10-31T02:50:43.466Z,-23525.38
2022-10-31T02:52:46.098Z,-23523.00
2022-10-31T02:54:49.945Z,-23522.53
2022-10-31T02:56:57.915Z,-23522.19
2022-10-31T02:59:04.031Z,-23520.63
2022-10-31T03:01:19.875Z,-23516.03
2022-10-31T03:03:34.327Z,-23521.56
2022-10-31T03:05:56.516Z,-23524.91
2022-10-31T03:08:08.281Z,-23518.72
2022-10-31T03:10:19.047Z,-23527.28
2022-10-31T03:12:30.755Z,-23521.88
2022-10-31T03:14:42.682Z,-23521.09
2022-10-31T03:16:49.231Z,-23517.47
2022-10-31T03:18:58.962Z,-23519.03
2022-10-31T03:21:06.433Z,-23518.41
2022-10-31T03:23:14.253Z,-23521.09
2022-10-31T03:25:18.769Z,-23520.16
2022-10-31T03:27:26.312Z,-23518.09
2022-10-31T03:29:32.918Z,-23514.75
2022-10-31T03:31:39.639Z,-23517.63
2022-10-31T03:33:44.444Z,-23516.66
2022-10-31T03:35:52.990Z,-23516.50
2022-10-31T03:37:57.307Z,-23515.41
2022-10-31T03:40:02.188Z,-23516.34
2022-10-31T03:42:07.901Z,-23511.44
2022-10-31T03:44:15.557Z,-23516.03
2022-10-31T03:46:19.021Z,-23510.50
2022-10-31T03:48:23.111Z,-23507.94
2022-10-31T03:50:29.177Z,-23508.44
2022-10-31T03:52:39.295Z,-23509.69
2022-10-31T03:54:44.653Z,-23510.97
2022-10-31T03:56:52.274Z,-23511.59
2022-10-31T03:59:01.560Z,-23507.47
2022-10-31T04:01:07.807Z,-23512.53
2022-10-31T04:03:14.490Z,-23510.00
2022-10-31T04:05:19.441Z,-23513.50
2022-10-31T04:07:24.902Z,-23512.06
2022-10-31T04:09:31.430Z,-23509.38
2022-10-31T04:11:37.183Z,-23508.44
2022-10-31T04:13:41.781Z,-23513.81
2022-10-31T04:15:45.346Z,-23510.31
2022-10-31T04:17:52.353Z,-23507.94
2022-10-31T04:19:54.987Z,-23513.81
2022-10-31T04:21:57.605Z,-23517.94
2022-10-31T04:24:00.188Z,-23510.81
2022-10-31T04:26:04.399Z,-23510.31
2022-10-31T04:28:07.167Z,-23510.00
2022-10-31T04:30:10.763Z,-23513.34
2022-10-31T04:32:13.351Z,-23515.41
2022-10-31T04:34:17.883Z,-23509.06
2022-10-31T04:36:21.287Z,-23509.06
2022-10-31T04:38:23.959Z,-23512.38
2022-10-31T04:40:26.551Z,-23507.78
2022-10-31T04:42:32.691Z,-23516.97
2022-10-31T04:44:35.376Z,-23512.53
2022-10-31T04:46:38.021Z,-23510.16
2022-10-31T04:48:40.595Z,-23505.25
2022-10-31T04:50:43.242Z,-23502.09
2022-10-31T04:52:47.147Z,-23504.94
2022-10-31T04:54:49.748Z,-23507.00
2022-10-31T04:56:52.345Z,-23499.72
2022-10-31T04:58:56.281Z,-23503.69
2022-10-31T05:00:59.077Z,-23501.78
2022-10-31T05:03:02.347Z,-23504.00
2022-10-31T05:05:07.098Z,-23500.50
2022-10-31T05:07:09.788Z,-23500.97
2022-10-31T05:09:12.407Z,-23502.56
2022-10-31T05:11:15.039Z,-23500.81
2022-10-31T05:13:17.687Z,-23507.78
2022-10-31T05:15:23.385Z,-23499.88
2022-10-31T05:17:25.962Z,-23500.50
2022-10-31T05:19:28.506Z,-23490.38
2022-10-31T05:21:31.131Z,-23488.94
2022-10-31T05:23:33.740Z,-23484.97
2022-10-31T05:25:36.414Z,-23484.66
2022-10-31T05:27:41.230Z,-23488.16
2022-10-31T05:29:43.802Z,-23487.03
2022-10-31T05:31:47.754Z,-23481.81
2022-10-31T05:33:50.315Z,-23485.13
2022-10-31T05:35:52.912Z,-23488.78
2022-10-31T05:37:55.537Z,-23485.91
2022-10-31T05:39:59.501Z,-23485.28
2022-10-31T05:42:04.189Z,-23484.97
2022-10-31T05:44:07.008Z,-23480.84
2022-10-31T05:46:09.700Z,-23483.53
2022-10-31T05:48:13.718Z,-23486.56
2022-10-31T05:50:16.309Z,-23481.81
2022-10-31T05:52:19.307Z,-23481.66
2022-10-31T05:54:22.322Z,-23482.44
2022-10-31T05:56:24.921Z,-23482.44
2022-10-31T05:58:27.518Z,-23481.81
2022-10-31T06:00:30.719Z,-23479.91
2022-10-31T06:02:35.350Z,-23479.91
2022-10-31T06:04:39.428Z,-23480.53
2022-10-31T06:06:42.062Z,-23479.59
2022-10-31T06:08:44.731Z,-23478.94
2022-10-31T06:10:47.343Z,-23479.59
2022-10-31T06:12:50.751Z,-23477.38
2022-10-31T06:14:53.363Z,-23476.88
2022-10-31T06:16:56.580Z,-23480.38
2022-10-31T06:18:59.310Z,-23479.91
2022-10-31T06:21:03.297Z,-23477.84
2022-10-31T06:23:06.198Z,-23475.16
2022-10-31T06:25:09.510Z,-23476.72
2022-10-31T06:27:12.094Z,-23475.78
2022-10-31T06:29:14.737Z,-23477.69
2022-10-31T06:31:17.356Z,-23475.16
2022-10-31T06:33:20.036Z,-23478.31
2022-10-31T06:35:22.937Z,-23480.53
2022-10-31T06:37:26.905Z,-23478.31
2022-10-31T06:39:29.608Z,-23476.25
2022-10-31T06:41:32.230Z,-23482.13
2022-10-31T06:43:35.254Z,-23480.53
2022-10-31T06:45:37.846Z,-23481.81
2022-10-31T06:47:56.696Z,-23486.72
2022-10-31T06:50:03.133Z,-23490.38
2022-10-31T06:52:06.841Z,-23490.69
2022-10-31T06:54:10.911Z,-23494.00
2022-10-31T06:56:13.492Z,-23496.72
2022-10-31T06:58:16.071Z,-23497.66
2022-10-31T07:00:19.206Z,-23496.38
2022-10-31T07:02:21.830Z,-23500.34
2022-10-31T07:04:25.360Z,-23505.25
2022-10-31T07:06:28.042Z,-23507.78
2022-10-31T07:08:30.671Z,-23512.38
2022-10-31T07:10:40.123Z,-23510.66
2022-10-31T07:12:43.525Z,-23510.97
2022-10-31T07:14:47.251Z,-23519.81
2022-10-31T07:16:53.222Z,-23514.59
2022-10-31T07:18:55.909Z,-23517.63
2022-10-31T07:20:58.512Z,-23520.16
2022-10-31T07:23:01.770Z,-23520.00
2022-10-31T07:25:05.122Z,-23522.03
2022-10-31T07:27:09.317Z,-23516.34
2022-10-31T07:29:11.951Z,-23507.63
2022-10-31T07:31:14.615Z,-23499.25
2022-10-31T07:33:17.247Z,-23497.81
2022-10-31T07:35:21.808Z,-23497.03
2022-10-31T07:37:24.485Z,-23509.69
2022-10-31T07:39:27.084Z,-23507.31
2022-10-31T07:41:29.709Z,-23513.66
2022-10-31T07:43:33.700Z,-23521.72
2022-10-31T07:45:36.315Z,-23532.81
2022-10-31T07:47:41.858Z,-23532.97
2022-10-31T07:49:44.475Z,-23540.72
2022-10-31T07:51:47.253Z,-23537.41
2022-10-31T07:53:49.861Z,-23542.00
2022-10-31T07:55:52.731Z,-23550.69
2022-10-31T07:58:00.313Z,-23545.47
2022-10-31T08:00:05.128Z,-23535.34
2022-10-31T08:02:07.957Z,-23539.78
2022-10-31T08:04:10.568Z,-23530.44
2022-10-31T08:06:13.156Z,-23523.78
2022-10-31T08:08:16.534Z,-23536.28
2022-10-31T08:10:19.191Z,-23540.56
2022-10-31T08:12:21.949Z,-23533.91
2022-10-31T08:14:24.752Z,-23536.44
2022-10-31T08:16:28.993Z,-23548.47
2022-10-31T08:18:32.397Z,-23544.69
2022-10-31T08:20:35.311Z,-23548.78
2022-10-31T08:22:42.827Z,-23554.66
2022-10-31T08:24:46.575Z,-23554.34
2022-10-31T08:26:49.435Z,-23566.50
2022-10-31T08:28:52.341Z,-23566.66
2022-10-31T08:30:54.906Z,-23570.16
2022-10-31T08:33:03.776Z,-23585.66
2022-10-31T08:35:06.993Z,-23597.97
2022-10-31T08:37:09.571Z,-23610.59
2022-10-31T08:39:12.208Z,-23612.34
2022-10-31T08:41:14.975Z,-23604.59
2022-10-31T08:43:19.779Z,-23618.34
2022-10-31T08:45:22.484Z,-23639.00
2022-10-31T08:47:25.151Z,-23630.97
2022-10-31T08:49:29.138Z,-23622.91
2022-10-31T08:51:31.729Z,-23609.97
2022-10-31T08:53:34.358Z,-23617.22
2022-10-31T08:55:37.572Z,-23617.69
2022-10-31T08:57:40.188Z,-23616.28
2022-10-31T08:59:42.855Z,-23628.59
2022-10-31T09:01:47.051Z,-23630.50
2022-10-31T09:03:49.756Z,-23623.72
2022-10-31T09:05:58.319Z,-23618.81
2022-10-31T09:08:03.633Z,-23616.91
2022-10-31T09:10:07.482Z,-23607.75
2022-10-31T09:12:10.072Z,-23604.44
2022-10-31T09:14:12.685Z,-23613.44
2022-10-31T09:16:15.343Z,-23603.34
2022-10-31T09:18:20.178Z,-23603.81
2022-10-31T09:20:23.312Z,-23608.22
2022-10-31T09:22:27.331Z,-23616.59
2022-10-31T09:24:29.951Z,-23626.72
2022-10-31T09:26:32.569Z,-23631.13
2022-10-31T09:28:35.648Z,-23655.09
2022-10-31T09:30:38.753Z,-23656.38
2022-10-31T09:32:41.365Z,-23644.69
2022-10-31T09:34:44.035Z,-23638.06
2022-10-31T09:36:46.975Z,-23637.13
2022-10-31T09:38:50.926Z,-23617.06
2022-10-31T09:41:03.369Z,-23618.03
2022-10-31T09:43:10.620Z,-23617.88
2022-10-31T09:45:20.017Z,-23619.59
2022-10-31T09:47:34.295Z,-23622.91
2022-10-31T09:49:48.073Z,-23630.34
2022-10-31T09:51:57.176Z,-23624.81
2022-10-31T09:54:05.150Z,-23624.50
2022-10-31T09:56:11.293Z,-23630.66
2022-10-31T09:58:19.349Z,-23638.53
2022-10-31T10:00:24.253Z,-23644.38
2022-10-31T10:02:32.101Z,-23653.22
2022-10-31T10:04:44.539Z,-23662.69
2022-10-31T10:06:48.814Z,-23644.84
2022-10-31T10:08:51.550Z,-23654.78
2022-10-31T10:11:01.189Z,-23652.59
2022-10-31T10:13:24.858Z,-23641.84
2022-10-31T10:15:41.131Z,-23654.47
2022-10-31T10:17:55.171Z,-23642.31
2022-10-31T10:20:19.828Z,-23643.44
2022-10-31T10:22:33.591Z,-23665.69
2022-10-31T10:24:52.274Z,-23650.69
2022-10-31T10:27:07.515Z,-23653.38
2022-10-31T10:29:23.283Z,-23649.25
2022-10-31T10:31:32.441Z,-23653.69
2022-10-31T10:33:38.739Z,-23668.03
2022-10-31T10:35:46.813Z,-23685.53
2022-10-31T10:37:52.861Z,-23653.84
2022-10-31T10:39:58.399Z,-23658.41
2022-10-31T10:42:20.938Z,-23668.03
2022-10-31T10:44:23.565Z,-23660.16
2022-10-31T10:46:49.900Z,-23668.50
2022-10-31T10:49:00.201Z,-23666.94
2022-10-31T10:51:03.685Z,-23681.28
2022-10-31T10:53:22.254Z,-23683.63
2022-10-31T10:55:34.757Z,-23693.09
2022-10-31T10:57:56.021Z,-23663.16
2022-10-31T11:00:02.727Z,-23692.31
2022-10-31T11:02:17.811Z,-23685.53
2022-10-31T11:04:31.962Z,-23683.78
2022-10-31T11:06:34.680Z,-23675.75
2022-10-31T11:08:38.116Z,-23671.66
2022-10-31T11:10:41.023Z,-23666.16
2022-10-31T11:12:47.415Z,-23679.38
2022-10-31T11:14:53.065Z,-23691.34
2022-10-31T11:17:08.634Z,-23683.78
2022-10-31T11:19:19.182Z,-23687.72
2022-10-31T11:21:24.056Z,-23685.38
2022-10-31T11:23:28.344Z,-23684.75
2022-10-31T11:25:31.072Z,-23700.81
2022-10-31T11:27:33.690Z,-23712.78
2022-10-31T11:29:37.744Z,-23716.88
2022-10-31T11:31:40.907Z,-23712.16
2022-10-31T11:33:49.316Z,-23703.34
2022-10-31T11:35:55.200Z,-23704.59
2022-10-31T11:38:03.339Z,-23704.13
2022-10-31T11:40:08.621Z,-23710.56
2022-10-31T11:42:11.481Z,-23716.06
2022-10-31T11:44:16.957Z,-23733.56
2022-10-31T11:46:25.201Z,-23711.97
2022-10-31T11:48:28.043Z,-23721.75
2022-10-31T11:50:35.963Z,-23736.84
2022-10-31T11:52:41.141Z,-23731.03
2022-10-31T11:54:49.003Z,-23727.88
2022-10-31T11:56:51.734Z,-23709.16
2022-10-31T11:58:58.168Z,-23715.75
2022-10-31T12:01:00.772Z,-23726.63
2022-10-31T12:03:14.915Z,-23716.72
2022-10-31T12:05:22.204Z,-23712.63
2022-10-31T12:07:25.569Z,-23707.41
2022-10-31T12:09:31.142Z,-23714.34
2022-10-31T12:11:50.259Z,-23699.25
2022-10-31T12:14:07.126Z,-23705.84
2022-10-31T12:16:20.539Z,-23719.38
2022-10-31T12:18:50.954Z,-23721.59
2022-10-31T12:21:13.721Z,-23726.63
2022-10-31T12:23:25.583Z,-23725.22
2022-10-31T12:25:40.048Z,-23740.94
2022-10-31T12:28:10.182Z,-23733.56
2022-10-31T12:30:20.106Z,-23721.44
2022-10-31T12:32:34.201Z,-23715.28
2022-10-31T12:34:54.229Z,-23719.38
2022-10-31T12:37:04.593Z,-23721.13
2022-10-31T12:39:25.576Z,-23729.47
2022-10-31T12:41:42.472Z,-23714.50
2022-10-31T12:43:50.326Z,-23703.00
2022-10-31T12:45:56.609Z,-23712.16
2022-10-31T12:48:19.195Z,-23711.19
2022-10-31T12:50:37.159Z,-23709.94
2022-10-31T12:52:53.228Z,-23714.34
2022-10-31T12:55:10.359Z,-23712.31
2022-10-31T12:57:24.806Z,-23714.34
2022-10-31T12:59:34.583Z,-23714.97
2022-10-31T13:01:41.789Z,-23709.00
2022-10-31T13:03:51.650Z,-23714.03
2022-10-31T13:05:58.631Z,-23708.06
2022-10-31T13:08:07.897Z,-23714.03
2022-10-31T13:10:19.725Z,-23728.50
2022-10-31T13:12:24.629Z,-23731.97
2022-10-31T13:14:31.735Z,-23717.19
2022-10-31T13:16:38.757Z,-23720.00
2022-10-31T13:18:45.263Z,-23722.69
2022-10-31T13:20:54.698Z,-23720.97
2022-10-31T13:23:48.981Z,-23720.97
2022-10-31T13:25:51.779Z,-23732.44
2022-10-31T13:27:59.112Z,-23736.53
2022-10-31T13:30:04.955Z,-23730.56
2022-10-31T13:32:08.966Z,-23726.00
2022-10-31T13:34:23.891Z,-23726.31
2022-10-31T13:36:35.085Z,-23729.13
2022-10-31T13:38:46.584Z,-23721.13
2022-10-31T13:40:55.425Z,-23722.84
2022-10-31T13:43:04.612Z,-23724.09
2022-10-31T13:45:15.544Z,-23728.19
2022-10-31T13:47:27.459Z,-23715.28
2022-10-31T13:49:41.306Z,-23719.22
2022-10-31T13:51:43.955Z,-23717.66
2022-10-31T13:53:59.651Z,-23720.81
2022-10-31T13:56:16.425Z,-23727.09
2022-10-31T13:58:25.799Z,-23723.16
2022-10-31T14:00:28.760Z,-23721.28
2022-10-31T14:02:33.660Z,-23728.34
2022-10-31T14:04:49.780Z,-23737.00
2022-10-31T14:07:07.645Z,-23736.06
2022-10-31T14:09:31.468Z,-23747.38
2022-10-31T14:11:37.097Z,-23733.06
2022-10-31T14:13:45.504Z,-23734.50
2022-10-31T14:15:55.649Z,-23730.72
2022-10-31T14:18:01.078Z,-23731.19
2022-10-31T14:20:41.245Z,-23736.53
2022-10-31T14:22:44.525Z,-23728.97
2022-10-31T14:24:48.645Z,-23731.81
2022-10-31T14:26:56.029Z,-23742.81
2022-10-31T14:29:00.534Z,-23749.91
2022-10-31T14:31:03.844Z,-23743.28
2022-10-31T14:33:19.055Z,-23740.78
2022-10-31T14:35:25.611Z,-23745.97
2022-10-31T14:37:59.058Z,-23745.19
2022-10-31T14:40:21.802Z,-23731.19
2022-10-31T14:42:47.626Z,-23727.72
2022-10-31T14:45:21.116Z,-23727.09
2022-10-31T14:47:33.572Z,-23725.69
2022-10-31T14:49:51.109Z,-23727.72
2022-10-31T14:51:54.599Z,-23725.06
2022-10-31T14:53:59.110Z,-23717.50
2022-10-31T14:56:06.871Z,-23711.34
2022-10-31T14:58:10.023Z,-23717.81
2022-10-31T15:00:19.389Z,-23707.56
2022-10-31T15:02:26.417Z,-23712.63
2022-10-31T15:04:33.402Z,-23711.34
2022-10-31T15:06:44.429Z,-23709.31
2022-10-31T15:08:49.717Z,-23711.03
2022-10-31T15:10:52.558Z,-23712.63
2022-10-31T15:12:56.748Z,-23713.09
2022-10-31T15:15:00.323Z,-23708.69
2022-10-31T15:17:05.442Z,-23704.75
2022-10-31T15:19:11.732Z,-23703.34
2022-10-31T15:21:17.876Z,-23703.97
2022-10-31T15:23:25.604Z,-23702.69
2022-10-31T15:25:32.314Z,-23697.97
2022-10-31T15:27:35.640Z,-23694.03
2022-10-31T15:29:50.323Z,-23691.53
2022-10-31T15:31:54.717Z,-23688.53
2022-10-31T15:34:01.843Z,-23684.41
2022-10-31T15:36:04.912Z,-23678.75
2022-10-31T15:38:10.451Z,-23677.34
2022-10-31T15:40:17.637Z,-23675.59
2022-10-31T15:42:23.420Z,-23673.56
2022-10-31T15:44:28.784Z,-23670.56
2022-10-31T15:46:34.755Z,-23668.34
2022-10-31T15:48:39.381Z,-23664.88
2022-10-31T15:50:47.325Z,-23659.53
2022-10-31T15:52:51.277Z,-23659.69
2022-10-31T15:54:57.315Z,-23660.16
2022-10-31T15:57:00.088Z,-23659.84
2022-10-31T15:59:04.442Z,-23657.31
2022-10-31T16:01:20.878Z,-23655.41
2022-10-31T16:03:28.926Z,-23653.06
2022-10-31T16:05:38.256Z,-23642.81
2022-10-31T16:07:51.075Z,-23643.28
2022-10-31T16:09:56.780Z,-23639.34
2022-10-31T16:12:00.699Z,-23639.19
2022-10-31T16:14:08.219Z,-23636.81
2022-10-31T16:16:33.963Z,-23631.44
2022-10-31T16:18:41.659Z,-23626.72
2022-10-31T16:20:53.526Z,-23623.88
2022-10-31T16:22:58.445Z,-23623.88
2022-10-31T16:25:07.045Z,-23627.66
2022-10-31T16:27:20.829Z,-23626.72
2022-10-31T16:29:35.470Z,-23627.03
2022-10-31T16:31:40.565Z,-23624.81
2022-10-31T16:33:44.552Z,-23620.09
2022-10-31T16:35:47.312Z,-23624.34
2022-10-31T16:37:49.980Z,-23628.28
2022-10-31T16:39:52.614Z,-23620.56
2022-10-31T16:41:57.962Z,-23621.50
2022-10-31T16:44:04.624Z,-23619.75
2022-10-31T16:46:07.291Z,-23619.75
2022-10-31T16:48:15.533Z,-23617.88
2022-10-31T16:50:22.830Z,-23621.66
2022-10-31T16:52:25.406Z,-23616.91
2022-10-31T16:54:30.344Z,-23615.03
2022-10-31T16:56:35.376Z,-23614.06
2022-10-31T16:58:38.125Z,-23615.03
2022-10-31T17:00:40.713Z,-23618.97
2022-10-31T17:02:44.211Z,-23621.19
2022-10-31T17:04:48.524Z,-23619.44
2022-10-31T17:06:54.852Z,-23618.50
2022-10-31T17:08:57.490Z,-23617.53
2022-10-31T17:11:00.930Z,-23615.66
2022-10-31T17:13:05.764Z,-23617.88
2022-10-31T17:15:12.040Z,-23621.34
2022-10-31T17:17:14.652Z,-23620.72
2022-10-31T17:19:17.595Z,-23615.97
2022-10-31T17:21:24.004Z,-23619.91
2022-10-31T17:23:29.024Z,-23622.75
2022-10-31T17:25:32.795Z,-23619.91
2022-10-31T17:27:35.509Z,-23617.53
2022-10-31T17:29:38.349Z,-23615.66
2022-10-31T17:31:40.930Z,-23612.34
2022-10-31T17:33:43.508Z,-23613.75
2022-10-31T17:35:46.295Z,-23616.59
2022-10-31T17:37:50.013Z,-23610.91
2022-10-31T17:39:53.967Z,-23608.69
2022-10-31T17:41:56.622Z,-23601.28
2022-10-31T17:43:59.905Z,-23598.75
2022-10-31T17:46:03.153Z,-23598.91
2022-10-31T17:48:06.312Z,-23598.91
2022-10-31T17:50:09.876Z,-23592.75
2022-10-31T17:52:12.513Z,-23591.66
2022-10-31T17:54:18.386Z,-23592.91
2022-10-31T17:56:22.392Z,-23596.06
2022-10-31T17:58:25.005Z,-23590.06
2022-10-31T18:00:27.684Z,-23596.38
2022-10-31T18:02:30.481Z,-23597.34
2022-10-31T18:04:33.276Z,-23598.91
2022-10-31T18:06:35.971Z,-23600.19
2022-10-31T18:08:40.954Z,-23597.66
2022-10-31T18:10:43.574Z,-23594.16
2022-10-31T18:12:48.615Z,-23592.91
2022-10-31T18:14:52.236Z,-23592.13
2022-10-31T18:16:54.863Z,-23597.50
2022-10-31T18:19:01.667Z,-23604.59
2022-10-31T18:21:04.488Z,-23603.03
2022-10-31T18:23:07.493Z,-23595.91
2022-10-31T18:25:10.537Z,-23593.69
2022-10-31T18:27:13.138Z,-23587.22
2022-10-31T18:29:17.222Z,-23584.84
2022-10-31T18:31:20.432Z,-23585.66
2022-10-31T18:33:23.049Z,-23580.44
2022-10-31T18:35:25.716Z,-23572.53
2022-10-31T18:37:28.925Z,-23573.00
2022-10-31T18:39:31.750Z,-23578.69
2022-10-31T18:41:35.503Z,-23583.13
2022-10-31T18:43:38.305Z,-23581.38
2022-10-31T18:45:52.301Z,-23591.00
2022-10-31T18:47:57.854Z,-23584.06
2022-10-31T18:50:00.511Z,-23588.16
2022-10-31T18:52:04.643Z,-23589.59
2022-10-31T18:54:07.297Z,-23581.22
2022-10-31T18:56:11.310Z,-23586.59
2022-10-31T18:58:13.911Z,-23585.66
2022-10-31T19:00:18.445Z,-23580.59
2022-10-31T19:02:22.465Z,-23579.47
2022-10-31T19:04:25.205Z,-23585.31
2022-10-31T19:06:28.563Z,-23588.50
2022-10-31T19:08:31.641Z,-23590.69
2022-10-31T19:10:35.544Z,-23581.84
2022-10-31T19:12:38.173Z,-23579.63
2022-10-31T19:14:40.776Z,-23579.78
2022-10-31T19:16:43.539Z,-23576.16
2022-10-31T19:18:47.700Z,-23577.09
2022-10-31T19:20:50.290Z,-23580.44
2022-10-31T19:22:52.951Z,-23574.56
2022-10-31T19:24:55.563Z,-23567.31
2022-10-31T19:26:58.357Z,-23569.19
2022-10-31T19:29:00.964Z,-23574.88
2022-10-31T19:31:04.929Z,-23572.69
2022-10-31T19:33:07.486Z,-23573.00
2022-10-31T19:35:11.665Z,-23570.47
2022-10-31T19:37:14.316Z,-23571.25
2022-10-31T19:39:16.921Z,-23573.31
2022-10-31T19:41:23.859Z,-23578.06
2022-10-31T19:43:26.584Z,-23573.63
2022-10-31T19:45:29.234Z,-23569.84
2022-10-31T19:47:31.863Z,-23568.56
2022-10-31T19:49:34.461Z,-23572.84
2022-10-31T19:51:38.716Z,-23570.63
2022-10-31T19:53:41.690Z,-23571.88
2022-10-31T19:55:44.453Z,-23573.63
2022-10-31T19:58:02.672Z,-23575.69
2022-10-31T20:00:06.670Z,-23576.47
2022-10-31T20:02:17.003Z,-23576.47
2022-10-31T20:04:19.682Z,-23574.72
2022-10-31T20:06:25.213Z,-23573.00
2022-10-31T20:08:29.863Z,-23574.72
2022-10-31T20:10:32.432Z,-23574.56
2022-10-31T20:12:35.036Z,-23574.09
2022-10-31T20:14:37.673Z,-23576.94
2022-10-31T20:16:40.574Z,-23574.72
2022-10-31T20:18:44.062Z,-23575.38
2022-10-31T20:20:46.773Z,-23585.66
2022-10-31T20:22:50.612Z,-23587.69
2022-10-31T20:24:54.582Z,-23587.53
2022-10-31T20:26:57.186Z,-23587.22
2022-10-31T20:29:00.883Z,-23586.59
2022-10-31T20:31:10.056Z,-23586.28
2022-10-31T20:33:12.875Z,-23587.53
2022-10-31T20:35:15.577Z,-23586.59
2022-10-31T20:37:18.199Z,-23589.91
2022-10-31T20:39:20.831Z,-23585.66
2022-10-31T20:41:25.056Z,-23585.47
2022-10-31T20:43:27.668Z,-23585.97
2022-10-31T20:45:30.831Z,-23590.06
2022-10-31T20:47:33.462Z,-23591.00
2022-10-31T20:49:36.075Z,-23590.06
2022-10-31T20:51:38.647Z,-23592.28
2022-10-31T20:53:41.275Z,-23588.81
2022-10-31T20:55:43.864Z,-23592.59
2022-10-31T20:57:47.833Z,-23595.13
2022-10-31T20:59:50.399Z,-23594.34
2022-10-31T21:01:53.136Z,-23598.28
2022-10-31T21:03:56.339Z,-23592.91
2022-10-31T21:06:00.861Z,-23586.59
2022-10-31T21:08:03.450Z,-23583.44
2022-10-31T21:10:14.606Z,-23580.59
2022-10-31T21:12:17.229Z,-23579.31
2022-10-31T21:14:21.257Z,-23573.94
2022-10-31T21:16:25.580Z,-23573.00
2022-10-31T21:18:28.424Z,-23577.56
2022-10-31T21:20:31.033Z,-23570.31
2022-10-31T21:22:33.771Z,-23567.94
2022-10-31T21:24:36.409Z,-23566.34
2022-10-31T21:26:40.737Z,-23563.97
2022-10-31T21:28:43.657Z,-23562.88
2022-10-31T21:30:51.518Z,-23559.56
2022-10-31T21:32:54.133Z,-23558.75
2022-10-31T21:34:56.752Z,-23554.97
2022-10-31T21:36:59.399Z,-23557.81
2022-10-31T21:39:02.528Z,-23553.84
2022-10-31T21:41:07.680Z,-23553.06
2022-10-31T21:43:10.333Z,-23551.97
2022-10-31T21:45:12.951Z,-23554.97
2022-10-31T21:47:17.348Z,-23556.53
2022-10-31T21:49:19.952Z,-23556.53
2022-10-31T21:51:24.339Z,-23555.44
2022-10-31T21:53:44.587Z,-23556.72
2022-10-31T21:55:47.213Z,-23556.38
2022-10-31T21:57:49.826Z,-23557.19
2022-10-31T21:59:52.425Z,-23558.75
2022-10-31T22:01:56.901Z,-23560.97
2022-10-31T22:04:01.612Z,-23563.81
2022-10-31T22:06:05.299Z,-23564.28
2022-10-31T22:08:07.909Z,-23567.94
2022-10-31T22:10:10.841Z,-23569.84
2022-10-31T22:12:13.489Z,-23571.72
2022-10-31T22:14:16.733Z,-23571.09
2022-10-31T22:16:22.256Z,-23571.72
2022-10-31T22:18:24.920Z,-23573.31
2022-10-31T22:20:28.849Z,-23574.09
2022-10-31T22:22:31.435Z,-23579.31
2022-10-31T22:24:34.251Z,-23578.22
2022-10-31T22:26:38.020Z,-23583.75
2022-10-31T22:28:41.620Z,-23588.16
2022-10-31T22:30:44.459Z,-23591.00
2022-10-31T22:32:47.226Z,-23603.34
2022-10-31T22:34:49.837Z,-23605.72
2022-10-31T22:36:55.130Z,-23601.59
2022-10-31T22:38:58.616Z,-23602.41
2022-10-31T22:41:02.759Z,-23598.59
2022-10-31T22:43:05.437Z,-23602.41
2022-10-31T22:45:09.184Z,-23598.59
2022-10-31T22:47:11.808Z,-23598.91
2022-10-31T22:49:16.444Z,-23594.81
2022-10-31T22:51:20.920Z,-23595.75
2022-10-31T22:53:24.876Z,-23595.44
2022-10-31T22:55:27.480Z,-23597.34
2022-10-31T22:57:30.112Z,-23593.06
2022-10-31T22:59:32.763Z,-23590.38
2022-10-31T23:01:35.767Z,-23586.59
2022-10-31T23:03:38.775Z,-23585.31
2022-10-31T23:05:41.398Z,-23583.75
2022-10-31T23:07:44.078Z,-23588.31
2022-10-31T23:09:48.130Z,-23584.69
2022-10-31T23:11:50.755Z,-23585.66
2022-10-31T23:14:10.669Z,-23584.06
2022-10-31T23:16:13.412Z,-23584.38
2022-10-31T23:18:36.617Z,-23580.44
2022-10-31T23:20:42.132Z,-23576.31
2022-10-31T23:22:44.824Z,-23573.31
2022-10-31T23:24:49.179Z,-23575.22
2022-10-31T23:27:07.448Z,-23575.22
2022-10-31T23:29:10.223Z,-23576.00
2022-10-31T23:31:13.021Z,-23573.00
2022-10-31T23:33:15.592Z,-23571.88
2022-10-31T23:35:18.390Z,-23569.84
2022-10-31T23:37:22.985Z,-23568.88
2022-10-31T23:39:25.715Z,-23568.25
2022-10-31T23:41:29.692Z,-23567.63
2022-10-31T23:43:32.342Z,-23566.03
2022-10-31T23:45:34.969Z,-23563.66
2022-10-31T23:47:42.399Z,-23562.25
2022-10-31T23:49:46.245Z,-23562.25
2022-10-31T23:51:48.865Z,-23562.25
2022-10-31T23:53:51.531Z,-23560.81
2022-10-31T23:55:55.829Z,-23557.97
2022-10-31T23:58:00.325Z,-23554.66
